Time;durP1;ratioP1;P1;durP2;ratioP2;P2;SDS_P1;SDS_P2;PMS_P1;PMS_P2;Temp;Humidity;BMP_temperature;BMP_pressure;BME280_temperature;BME280_humidity;BME280_pressure;Samples;Min_cycle;Max_cycle;Signal;HPM_P1;HPM_P2
2021/04/27 00:01:47;;;;;;;8.38;1.08;;;21.50;39.80;;;;;;5079533;28;20125;-61
2021/04/27 00:04:14;;;;;;;4.70;1.30;;;21.50;39.90;;;;;;5092573;28;20077;-58
2021/04/27 00:06:40;;;;;;;8.20;1.20;;;21.50;40.00;;;;;;5094271;28;20157;-57
2021/04/27 00:09:07;;;;;;;9.35;1.33;;;21.40;39.80;;;;;;5074989;28;20093;-59
2021/04/27 00:11:34;;;;;;;8.13;1.58;;;21.50;40.10;;;;;;5090834;28;20610;-58
2021/04/27 00:14:01;;;;;;;4.00;0.90;;;21.40;39.70;;;;;;5091941;28;20567;-55
2021/04/27 00:16:28;;;;;;;7.78;1.27;;;21.40;39.80;;;;;;5089887;28;20087;-56
2021/04/27 00:18:54;;;;;;;7.43;0.90;;;21.30;40.10;;;;;;5074627;28;20432;-58
2021/04/27 00:21:21;;;;;;;4.97;1.10;;;21.20;40.30;;;;;;5092750;28;20073;-54
2021/04/27 00:23:47;;;;;;;7.97;1.08;;;21.30;40.50;;;;;;5089070;28;20129;-54
2021/04/27 00:26:14;;;;;;;8.90;1.35;;;21.30;40.50;;;;;;5090273;28;20087;-59
2021/04/27 00:28:40;;;;;;;6.80;1.00;;;21.40;40.50;;;;;;5095606;28;20119;-59
2021/04/27 00:31:08;;;;;;;5.78;1.00;;;21.40;40.30;;;;;;5085752;28;20084;-60
2021/04/27 00:33:34;;;;;;;5.70;1.27;;;21.40;40.00;;;;;;5090292;28;20091;-59
2021/04/27 00:36:01;;;;;;;7.68;0.80;;;21.40;39.50;;;;;;5088135;28;20156;-56
2021/04/27 00:38:27;;;;;;;10.15;0.95;;;21.40;39.90;;;;;;5091423;28;20582;-59
2021/04/27 00:40:54;;;;;;;5.82;1.10;;;21.10;39.60;;;;;;5088733;28;20091;-59
2021/04/27 00:43:20;;;;;;;6.20;0.95;;;21.20;39.70;;;;;;5091242;28;20115;-59
2021/04/27 00:45:47;;;;;;;9.05;0.93;;;21.20;39.90;;;;;;5089851;28;20077;-56
2021/04/27 00:48:13;;;;;;;4.95;1.05;;;21.00;39.40;;;;;;5091249;28;21455;-57
2021/04/27 00:50:42;;;;;;;2.38;0.77;;;20.90;39.70;;;;;;5089849;28;20125;-59
2021/04/27 00:53:10;;;;;;;6.03;1.00;;;20.80;40.10;;;;;;5087267;28;20156;-61
2021/04/27 00:55:38;;;;;;;6.47;0.70;;;20.90;40.20;;;;;;5090072;28;20065;-59
2021/04/27 00:58:04;;;;;;;7.15;0.68;;;20.90;40.40;;;;;;5089965;28;20088;-55
2021/04/27 01:00:39;;;;;;;6.38;0.90;;;20.80;40.60;;;;;;5074540;28;20072;-56
2021/04/27 01:03:06;;;;;;;2.40;0.73;;;20.80;41.00;;;;;;5095364;28;20098;-55
2021/04/27 01:05:37;;;;;;;8.98;0.68;;;20.90;41.10;;;;;;5096256;28;20083;-56
2021/04/27 01:08:13;;;;;;;1.30;0.68;;;21.10;40.80;;;;;;5078103;28;20069;-59
2021/04/27 01:10:49;;;;;;;12.85;1.02;;;21.30;40.30;;;;;;5094367;28;20556;-59
2021/04/27 01:13:26;;;;;;;6.82;0.80;;;21.40;40.10;;;;;;5090769;28;20600;-57
2021/04/27 01:15:54;;;;;;;5.75;0.98;;;21.50;39.40;;;;;;5093949;28;20084;-59
2021/04/27 01:18:23;;;;;;;5.53;0.90;;;21.30;40.30;;;;;;5094792;28;20101;-59
2021/04/27 01:20:51;;;;;;;6.35;1.70;;;21.40;40.00;;;;;;5097940;28;20107;-58
2021/04/27 01:23:24;;;;;;;3.30;1.40;;;21.10;39.90;;;;;;5095654;28;20517;-61
2021/04/27 01:26:02;;;;;;;9.80;1.30;;;20.90;40.40;;;;;;5090473;28;20068;-61
2021/04/27 01:28:30;;;;;;;18.77;1.02;;;20.90;40.50;;;;;;5091898;28;20100;-55
2021/04/27 01:30:57;;;;;;;10.02;1.10;;;20.80;40.30;;;;;;5089931;28;20085;-58
2021/04/27 01:33:28;;;;;;;11.40;0.90;;;20.70;40.10;;;;;;5094260;28;20080;-60
2021/04/27 01:35:57;;;;;;;14.40;1.10;;;20.70;40.00;;;;;;5093406;28;20077;-58
2021/04/27 01:38:24;;;;;;;7.97;0.88;;;20.50;40.40;;;;;;5092743;28;20095;-55
2021/04/27 01:40:52;;;;;;;9.07;0.90;;;20.40;40.60;;;;;;5092901;28;20072;-56
2021/04/27 01:43:21;;;;;;;4.18;0.90;;;20.30;40.80;;;;;;5090976;28;20076;-60
2021/04/27 01:45:50;;;;;;;5.97;1.20;;;20.30;41.10;;;;;;5094076;28;20072;-59
2021/04/27 01:48:17;;;;;;;14.93;1.63;;;20.20;40.80;;;;;;5076215;28;20136;-59
2021/04/27 01:50:44;;;;;;;7.47;1.60;;;20.10;40.60;;;;;;5090432;28;21671;-59
2021/04/27 01:53:14;;;;;;;11.02;2.28;;;20.00;40.60;;;;;;5095653;28;20161;-60
2021/04/27 01:55:42;;;;;;;19.00;1.90;;;19.90;40.40;;;;;;5091525;28;20516;-59
2021/04/27 01:58:09;;;;;;;14.73;1.88;;;19.90;40.60;;;;;;5093328;28;20163;-61
2021/04/27 02:00:36;;;;;;;11.07;1.52;;;19.90;40.00;;;;;;5079454;28;20082;-58
2021/04/27 02:03:03;;;;;;;14.48;1.65;;;19.90;40.00;;;;;;5091501;28;20067;-60
2021/04/27 02:05:29;;;;;;;10.32;1.70;;;19.80;40.20;;;;;;5090391;28;21415;-60
2021/04/27 02:07:56;;;;;;;16.23;2.40;;;19.60;40.50;;;;;;5090812;28;20148;-60
2021/04/27 02:10:23;;;;;;;20.42;3.85;;;19.50;40.90;;;;;;5088796;28;20105;-60
2021/04/27 02:12:52;;;;;;;6.93;1.55;;;19.50;40.90;;;;;;5097473;28;20070;-58
2021/04/27 02:15:22;;;;;;;14.80;5.50;;;19.50;41.00;;;;;;5102691;28;20452;-61
2021/04/27 02:18:25;;;;;;;5.13;0.95;;;19.50;41.20;;;;;;5092992;28;20072;-59
2021/04/27 02:20:54;;;;;;;7.18;1.88;;;19.30;41.50;;;;;;5055388;28;20084;-59
2021/04/27 02:23:21;;;;;;;4.38;1.25;;;19.20;41.60;;;;;;5095132;28;20073;-58
2021/04/27 02:25:49;;;;;;;7.90;1.23;;;19.20;41.60;;;;;;5090864;28;20076;-59
2021/04/27 02:28:17;;;;;;;5.85;1.30;;;19.20;41.80;;;;;;5094143;28;20437;-59
2021/04/27 02:30:44;;;;;;;8.88;0.93;;;19.10;42.00;;;;;;5094271;28;20124;-60
2021/04/27 02:33:11;;;;;;;6.07;1.25;;;19.10;42.10;;;;;;5094866;28;20103;-61
2021/04/27 02:35:37;;;;;;;2.85;0.80;;;19.10;42.20;;;;;;5094504;28;20487;-58
2021/04/27 02:38:04;;;;;;;5.15;0.95;;;19.00;42.50;;;;;;5097526;28;20581;-60
2021/04/27 02:40:30;;;;;;;6.47;0.93;;;19.00;42.60;;;;;;5092344;28;20130;-62
2021/04/27 02:42:59;;;;;;;5.72;1.10;;;18.90;42.70;;;;;;5100796;28;20080;-61
2021/04/27 02:45:32;;;;;;;13.50;1.60;;;18.90;42.70;;;;;;5099625;28;20068;-60
2021/04/27 02:48:06;;;;;;;7.70;1.10;;;18.80;42.80;;;;;;5101619;28;20112;-60
2021/04/27 02:50:33;;;;;;;4.30;1.20;;;18.80;42.90;;;;;;5098090;28;20104;-59
2021/04/27 02:52:59;;;;;;;8.27;0.80;;;18.80;42.80;;;;;;5102001;28;20083;-61
2021/04/27 02:55:26;;;;;;;;;;;18.70;42.70;;;;;;5100622;28;20406;-59
2021/04/27 02:57:52;;;;;;;7.03;1.52;;;18.80;42.70;;;;;;5096821;28;20433;-59
2021/04/27 03:00:18;;;;;;;;;;;18.70;42.70;;;;;;5094684;28;20073;-59
2021/04/27 03:02:45;;;;;;;6.15;1.20;;;18.70;42.80;;;;;;5095116;28;20417;-60
2021/04/27 03:05:12;;;;;;;;;;;18.70;42.70;;;;;;5101251;28;20429;-59
2021/04/27 03:07:38;;;;;;;8.67;1.00;;;18.60;42.80;;;;;;5097145;28;19960;-60
2021/04/27 03:10:05;;;;;;;7.72;1.20;;;18.50;43.10;;;;;;5103342;28;20096;-60
2021/04/27 03:12:35;;;;;;;6.57;1.20;;;18.50;43.30;;;;;;5099203;28;20075;-60
2021/04/27 03:15:02;;;;;;;4.63;0.80;;;18.50;43.50;;;;;;5090986;28;20076;-59
2021/04/27 03:17:29;;;;;;;5.97;1.63;;;18.50;43.70;;;;;;5102373;28;20547;-60
2021/04/27 03:19:55;;;;;;;;;;;18.40;43.90;;;;;;5099238;28;20097;-60
2021/04/27 03:22:24;;;;;;;7.80;1.00;;;18.40;44.10;;;;;;5095984;28;19964;-59
2021/04/27 03:24:51;;;;;;;4.60;0.88;;;18.40;44.20;;;;;;5095540;28;20076;-58
2021/04/27 03:27:17;;;;;;;5.65;0.90;;;18.40;44.10;;;;;;5076720;28;20566;-61
2021/04/27 03:29:45;;;;;;;2.45;1.00;;;18.40;44.30;;;;;;5094710;28;20563;-56
2021/04/27 03:32:13;;;;;;;4.72;0.98;;;18.30;44.50;;;;;;5095954;28;20080;-54
2021/04/27 03:34:40;;;;;;;4.50;1.00;;;18.20;44.70;;;;;;5098431;28;20083;-59
2021/04/27 03:37:07;;;;;;;5.47;1.10;;;18.30;44.80;;;;;;5095309;28;20073;-60
2021/04/27 03:39:33;;;;;;;7.32;1.48;;;18.20;44.70;;;;;;5094009;28;20091;-59
2021/04/27 03:42:00;;;;;;;5.20;1.20;;;18.20;44.80;;;;;;5092242;28;20529;-58
2021/04/27 03:44:27;;;;;;;5.28;1.00;;;18.20;45.00;;;;;;5096878;28;20159;-60
2021/04/27 03:46:53;;;;;;;8.80;1.13;;;18.10;45.00;;;;;;5097198;28;20113;-61
2021/04/27 03:49:19;;;;;;;;;;;18.10;45.00;;;;;;5099241;28;20509;-60
2021/04/27 03:51:46;;;;;;;6.20;1.15;;;18.10;45.10;;;;;;5095544;28;19968;-59
2021/04/27 03:54:12;;;;;;;;;;;18.10;45.30;;;;;;5100783;28;20074;-58
2021/04/27 03:56:38;;;;;;;3.30;1.40;;;18.10;45.40;;;;;;5094174;28;19967;-60
2021/04/27 03:59:04;;;;;;;;;;;18.00;45.40;;;;;;5092933;28;20149;-60
2021/04/27 04:01:31;;;;;;;9.38;1.20;;;18.00;45.50;;;;;;5096727;28;19960;-60
2021/04/27 04:03:57;;;;;;;;;;;18.00;45.80;;;;;;5101329;28;20072;-59
2021/04/27 04:06:24;;;;;;;11.43;1.70;;;18.00;45.70;;;;;;5102656;28;20457;-59
2021/04/27 04:08:50;;;;;;;4.40;1.10;;;18.00;45.70;;;;;;5099927;28;20149;-60
2021/04/27 04:11:17;;;;;;;8.23;1.13;;;17.90;45.50;;;;;;5100884;28;20118;-60
2021/04/27 04:13:44;;;;;;;5.95;1.00;;;17.80;45.40;;;;;;5101241;28;20071;-58
2021/04/27 04:16:10;;;;;;;;;;;17.70;45.40;;;;;;5105051;28;20077;-60
2021/04/27 04:18:36;;;;;;;7.30;1.70;;;17.80;45.40;;;;;;5099636;28;19963;-59
2021/04/27 04:21:03;;;;;;;9.25;2.03;;;17.70;45.40;;;;;;5099016;28;20076;-60
2021/04/27 04:23:30;;;;;;;11.65;2.60;;;17.70;45.50;;;;;;5102855;28;20082;-59
2021/04/27 04:25:57;;;;;;;11.57;1.38;;;17.70;45.40;;;;;;5101640;28;20091;-60
2021/04/27 04:28:23;;;;;;;4.10;1.63;;;17.70;45.40;;;;;;5099989;28;20662;-58
2021/04/27 04:30:50;;;;;;;6.53;2.38;;;17.60;45.30;;;;;;5095085;28;20179;-60
2021/04/27 04:33:16;;;;;;;3.88;1.60;;;17.60;45.40;;;;;;5098200;28;20093;-60
2021/04/27 04:35:43;;;;;;;2.67;1.00;;;17.60;45.50;;;;;;5099827;28;20072;-56
2021/04/27 04:38:10;;;;;;;9.15;1.75;;;17.60;45.30;;;;;;5098737;28;20087;-59
2021/04/27 04:40:37;;;;;;;13.75;2.55;;;17.60;45.30;;;;;;5076151;28;20072;-58
2021/04/27 04:43:04;;;;;;;11.20;2.60;;;17.60;45.40;;;;;;5100045;28;20524;-57
2021/04/27 04:45:30;;;;;;;;;;;17.60;45.20;;;;;;5097784;28;20081;-59
2021/04/27 04:47:56;;;;;;;10.23;2.00;;;17.60;45.00;;;;;;5099225;28;19984;-55
2021/04/27 04:50:22;;;;;;;;;;;17.50;45.20;;;;;;5099164;28;20456;-59
2021/04/27 04:52:49;;;;;;;7.93;3.47;;;17.50;45.10;;;;;;5099635;28;19964;-57
2021/04/27 04:55:16;;;;;;;;;;;17.40;45.10;;;;;;5099247;28;20072;-59
2021/04/27 04:57:43;;;;;;;8.47;1.80;;;17.40;45.10;;;;;;5097453;28;19986;-57
2021/04/27 05:00:15;;;;;;;6.25;1.48;;;17.30;45.20;;;;;;5100559;28;20318;-57
2021/04/27 05:02:42;;;;;;;7.13;1.63;;;17.30;45.20;;;;;;5101562;28;20163;-60
2021/04/27 05:05:10;;;;;;;5.28;1.50;;;17.30;45.10;;;;;;5100027;28;20479;-61
2021/04/27 05:07:45;;;;;;;15.25;1.70;;;17.30;45.20;;;;;;5082475;28;20072;-60
2021/04/27 05:10:13;;;;;;;5.78;1.50;;;17.30;45.50;;;;;;5094932;28;20083;-61
2021/04/27 05:12:40;;;;;;;4.85;1.25;;;17.20;45.60;;;;;;5100601;28;20117;-60
2021/04/27 05:15:08;;;;;;;9.65;1.98;;;17.20;46.00;;;;;;5092661;28;20079;-58
2021/04/27 05:17:34;;;;;;;9.43;2.60;;;17.20;46.30;;;;;;5095612;28;20073;-61
2021/04/27 05:20:02;;;;;;;6.50;2.65;;;17.10;46.40;;;;;;5090186;28;20073;-60
2021/04/27 05:22:29;;;;;;;5.70;1.58;;;17.00;46.40;;;;;;5091713;28;20061;-59
2021/04/27 05:24:56;;;;;;;5.50;1.20;;;17.00;46.40;;;;;;5092460;28;20156;-59
2021/04/27 05:27:23;;;;;;;;;;;17.00;46.40;;;;;;5080192;28;20495;-59
2021/04/27 05:29:50;;;;;;;8.63;1.85;;;17.00;46.20;;;;;;5092552;28;20030;-61
2021/04/27 05:32:16;;;;;;;7.05;1.23;;;17.00;46.20;;;;;;5089169;28;20073;-58
2021/04/27 05:34:43;;;;;;;4.15;1.40;;;17.00;46.10;;;;;;5092614;28;20167;-60
2021/04/27 05:37:09;;;;;;;;;;;16.90;46.10;;;;;;5075537;28;20541;-58
2021/04/27 05:39:36;;;;;;;8.13;1.10;;;16.80;46.10;;;;;;5096873;28;20426;-61
2021/04/27 05:42:03;;;;;;;;;;;16.80;46.20;;;;;;5090137;28;20075;-60
2021/04/27 05:44:29;;;;;;;4.20;0.82;;;16.70;46.20;;;;;;5096055;28;19990;-58
2021/04/27 05:46:55;;;;;;;;;;;16.70;46.30;;;;;;5088012;28;20127;-60
2021/04/27 05:49:22;;;;;;;6.88;1.25;;;16.80;46.40;;;;;;5095851;28;20000;-58
2021/04/27 05:51:49;;;;;;;6.40;2.80;;;16.70;46.40;;;;;;5093925;28;20069;-57
2021/04/27 05:54:15;;;;;;;5.93;2.55;;;16.70;46.50;;;;;;5095983;28;20156;-60
2021/04/27 05:56:42;;;;;;;;;;;16.70;46.50;;;;;;5095595;28;20077;-57
2021/04/27 05:59:11;;;;;;;9.10;2.22;;;16.60;46.80;;;;;;5089157;28;19964;-59
2021/04/27 06:01:39;;;;;;;7.07;2.30;;;16.60;47.00;;;;;;5095191;28;20084;-60
2021/04/27 06:04:06;;;;;;;5.53;1.10;;;16.60;47.20;;;;;;5094769;28;20117;-59
2021/04/27 06:06:35;;;;;;;6.35;1.27;;;16.50;47.50;;;;;;5090242;28;20084;-58
2021/04/27 06:09:04;;;;;;;3.38;1.38;;;16.60;47.70;;;;;;5087291;28;20101;-59
2021/04/27 06:11:31;;;;;;;3.50;1.10;;;16.50;47.90;;;;;;5088399;28;20077;-61
2021/04/27 06:13:58;;;;;;;3.55;0.60;;;16.50;48.20;;;;;;5096649;28;20366;-60
2021/04/27 06:16:26;;;;;;;3.97;0.60;;;16.50;48.30;;;;;;5094372;28;20552;-59
2021/04/27 06:18:55;;;;;;;3.78;1.13;;;16.50;48.60;;;;;;5072942;28;20104;-59
2021/04/27 06:21:22;;;;;;;3.90;0.68;;;16.50;49.10;;;;;;5093002;28;20127;-60
2021/04/27 06:23:49;;;;;;;3.55;1.00;;;16.40;49.30;;;;;;5096614;28;20479;-59
2021/04/27 06:26:15;;;;;;;;;;;16.30;49.80;;;;;;5090190;28;20099;-59
2021/04/27 06:28:41;;;;;;;1.83;0.80;;;16.30;50.00;;;;;;5092354;28;19961;-60
2021/04/27 06:31:08;;;;;;;2.42;0.50;;;16.20;50.20;;;;;;5092342;28;20089;-59
2021/04/27 06:33:35;;;;;;;;;;;16.20;50.30;;;;;;5090597;28;20076;-59
2021/04/27 06:36:01;;;;;;;4.65;0.50;;;16.20;50.30;;;;;;5090464;28;20048;-61
2021/04/27 06:38:27;;;;;;;;;;;16.20;50.20;;;;;;5087598;28;20073;-59
2021/04/27 06:40:54;;;;;;;3.38;0.93;;;16.20;50.20;;;;;;5093739;28;20219;-57
2021/04/27 06:43:21;;;;;;;1.98;0.70;;;16.20;50.30;;;;;;5075871;28;20179;-59
2021/04/27 06:45:49;;;;;;;4.18;0.80;;;16.10;50.20;;;;;;5090732;28;20079;-59
2021/04/27 06:48:16;;;;;;;3.92;0.50;;;16.20;50.20;;;;;;5092566;28;20080;-60
2021/04/27 06:50:43;;;;;;;2.88;0.70;;;16.20;50.00;;;;;;5090002;28;20089;-60
2021/04/27 06:53:10;;;;;;;4.28;0.70;;;16.20;49.90;;;;;;5092667;28;20100;-59
2021/04/27 06:55:37;;;;;;;4.97;0.60;;;16.10;50.00;;;;;;5091423;28;20092;-59
2021/04/27 06:58:10;;;;;;;4.80;0.70;;;16.20;50.10;;;;;;5091795;28;20065;-61
2021/04/27 07:00:39;;;;;;;1.98;0.80;;;16.10;50.10;;;;;;5057233;28;20183;-59
2021/04/27 07:03:07;;;;;;;5.35;0.80;;;16.10;50.00;;;;;;5094456;28;20074;-61
2021/04/27 07:05:33;;;;;;;4.50;1.08;;;16.20;50.00;;;;;;5086964;28;20072;-61
2021/04/27 07:08:01;;;;;;;1.75;0.60;;;16.20;50.00;;;;;;5090762;28;20075;-58
2021/04/27 07:10:27;;;;;;;5.97;0.75;;;16.10;50.20;;;;;;5091343;28;20108;-60
2021/04/27 07:12:54;;;;;;;4.22;0.65;;;16.10;50.10;;;;;;5089794;28;20072;-59
2021/04/27 07:15:21;;;;;;;3.65;0.57;;;16.10;50.30;;;;;;5085279;28;20069;-59
2021/04/27 07:17:48;;;;;;;2.38;0.60;;;16.10;50.30;;;;;;5090717;28;20064;-58
2021/04/27 07:20:15;;;;;;;1.80;0.65;;;16.10;50.30;;;;;;5093653;28;20532;-58
2021/04/27 07:22:42;;;;;;;3.40;1.00;;;16.00;50.30;;;;;;5094847;28;20099;-58
2021/04/27 07:25:10;;;;;;;2.63;0.55;;;16.00;50.10;;;;;;5092766;28;20072;-58
2021/04/27 07:27:37;;;;;;;1.25;0.40;;;16.10;50.20;;;;;;5091553;28;20407;-57
2021/04/27 07:30:05;;;;;;;5.55;0.55;;;16.10;50.20;;;;;;5092219;28;20100;-57
2021/04/27 07:32:32;;;;;;;4.40;1.17;;;16.00;50.10;;;;;;5080577;28;20069;-56
2021/04/27 07:34:58;;;;;;;;;;;16.00;50.20;;;;;;5097191;28;20072;-59
2021/04/27 07:37:25;;;;;;;5.82;0.73;;;16.00;50.40;;;;;;5095718;28;20324;-58
2021/04/27 07:39:51;;;;;;;;;;;16.00;50.40;;;;;;5096067;28;20080;-59
2021/04/27 07:42:17;;;;;;;4.13;0.88;;;15.90;50.70;;;;;;5093426;28;19957;-60
2021/04/27 07:44:44;;;;;;;3.28;0.75;;;16.00;50.60;;;;;;5092155;28;20445;-59
2021/04/27 07:47:11;;;;;;;6.07;0.90;;;16.00;50.60;;;;;;5092315;28;20472;-55
2021/04/27 07:49:38;;;;;;;3.10;0.70;;;15.90;50.70;;;;;;5092445;28;20092;-60
2021/04/27 07:52:04;;;;;;;;;;;16.00;50.70;;;;;;5092886;28;20150;-59
2021/04/27 07:54:31;;;;;;;2.65;0.43;;;16.00;50.40;;;;;;5095462;28;19960;-55
2021/04/27 07:56:57;;;;;;;2.30;0.70;;;15.90;50.60;;;;;;5094807;28;20081;-59
2021/04/27 07:59:24;;;;;;;1.83;0.50;;;16.00;50.50;;;;;;5076161;28;20556;-58
2021/04/27 08:01:51;;;;;;;3.65;0.80;;;15.90;50.40;;;;;;5092556;28;20554;-57
2021/04/27 08:04:18;;;;;;;4.13;0.70;;;15.90;50.30;;;;;;5090965;28;20959;-58
2021/04/27 08:06:45;;;;;;;1.27;0.52;;;15.90;50.30;;;;;;5092647;28;20130;-56
2021/04/27 08:09:12;;;;;;;1.38;0.50;;;15.90;50.10;;;;;;5093613;28;20479;-56
2021/04/27 08:11:39;;;;;;;;;;;15.90;50.10;;;;;;5098880;28;20137;-55
2021/04/27 08:14:07;;;;;;;2.72;0.70;;;15.90;50.00;;;;;;5094070;28;19979;-54
2021/04/27 08:16:34;;;;;;;3.40;0.70;;;15.90;49.90;;;;;;5091033;28;20072;-58
2021/04/27 08:19:02;;;;;;;2.80;0.73;;;15.90;49.80;;;;;;5091873;28;20068;-54
2021/04/27 08:21:29;;;;;;;2.35;0.90;;;15.90;49.70;;;;;;5093588;28;20084;-58
2021/04/27 08:23:56;;;;;;;5.85;0.80;;;15.90;49.80;;;;;;5093546;28;20539;-60
2021/04/27 08:26:25;;;;;;;3.28;0.70;;;15.80;50.00;;;;;;5092027;28;20599;-57
2021/04/27 08:28:52;;;;;;;3.92;0.70;;;15.90;49.70;;;;;;5095854;28;20494;-59
2021/04/27 08:31:18;;;;;;;4.40;0.88;;;15.90;49.80;;;;;;5095232;28;20108;-60
2021/04/27 08:33:45;;;;;;;5.88;0.90;;;15.90;49.60;;;;;;5075177;28;20110;-61
2021/04/27 08:36:11;;;;;;;;;;;15.90;49.70;;;;;;5094577;28;20076;-58
2021/04/27 08:38:38;;;;;;;5.88;0.90;;;15.90;49.70;;;;;;5098063;28;20397;-58
2021/04/27 08:41:05;;;;;;;1.98;0.75;;;15.90;49.70;;;;;;5093555;28;20087;-59
2021/04/27 08:43:33;;;;;;;3.47;0.60;;;15.90;49.70;;;;;;5091109;28;20444;-59
2021/04/27 08:45:59;;;;;;;3.40;0.68;;;16.00;49.70;;;;;;5092233;28;20104;-55
2021/04/27 08:48:26;;;;;;;2.22;0.68;;;16.00;49.40;;;;;;5092616;28;20114;-58
2021/04/27 08:50:53;;;;;;;4.25;0.77;;;16.00;49.40;;;;;;5094553;28;20124;-58
2021/04/27 08:53:21;;;;;;;7.90;0.82;;;15.90;49.40;;;;;;5093110;28;20475;-57
2021/04/27 08:55:48;;;;;;;3.97;0.75;;;16.00;49.30;;;;;;5090955;28;20072;-56
2021/04/27 08:58:15;;;;;;;1.88;0.40;;;16.00;49.20;;;;;;5094233;28;20073;-57
2021/04/27 09:00:43;;;;;;;2.10;0.50;;;16.00;49.20;;;;;;5096162;28;20083;-57
2021/04/27 09:03:11;;;;;;;6.65;0.57;;;16.00;49.20;;;;;;5091584;28;20152;-58
2021/04/27 09:05:40;;;;;;;4.90;0.75;;;16.00;49.40;;;;;;5089514;28;20065;-57
2021/04/27 09:08:07;;;;;;;4.10;0.40;;;16.00;49.50;;;;;;5092373;28;20072;-59
2021/04/27 09:10:45;;;;;;;1.17;0.50;;;16.00;49.70;;;;;;5090848;28;20480;-56
2021/04/27 09:13:14;;;;;;;1.25;0.40;;;16.00;49.80;;;;;;5093029;28;20223;-55
2021/04/27 09:15:47;;;;;;;2.55;0.50;;;16.00;50.00;;;;;;5096578;28;20500;-57
2021/04/27 09:18:25;;;;;;;0.90;0.45;;;15.90;50.40;;;;;;5092953;28;20425;-57
2021/04/27 09:20:55;;;;;;;2.85;0.60;;;15.80;50.60;;;;;;5093118;28;20786;-55
2021/04/27 09:23:22;;;;;;;2.40;0.73;;;15.90;50.70;;;;;;5093650;28;20137;-54
2021/04/27 09:26:14;;;;;;;1.30;0.70;;;15.80;50.80;;;;;;5094057;28;20073;-55
2021/04/27 09:28:46;;;;;;;7.15;1.00;;;15.80;50.90;;;;;;5093986;28;20069;-55
2021/04/27 09:31:34;;;;;;;4.45;1.67;;;15.80;51.10;;;;;;5089168;28;20088;-55
2021/04/27 09:34:20;;;;;;;9.55;3.38;;;15.80;51.20;;;;;;5090283;28;20165;-56
2021/04/27 09:36:50;;;;;;;9.95;3.40;;;15.80;51.50;;;;;;5089811;28;20076;-55
2021/04/27 09:39:20;;;;;;;5.32;1.90;;;15.80;51.70;;;;;;5088791;28;20095;-57
2021/04/27 09:41:58;;;;;;;3.67;1.58;;;15.80;51.70;;;;;;5089925;28;20121;-58
2021/04/27 09:44:39;;;;;;;3.97;0.65;;;15.70;51.90;;;;;;5087579;28;20410;-56
2021/04/27 09:47:07;;;;;;;3.17;0.50;;;15.70;52.00;;;;;;5072415;28;20131;-61
2021/04/27 09:49:33;;;;;;;4.85;0.80;;;15.60;52.20;;;;;;5091274;28;20103;-60
2021/04/27 09:52:00;;;;;;;;;;;15.60;52.20;;;;;;5089987;28;20158;-57
2021/04/27 09:54:26;;;;;;;1.35;0.50;;;15.60;52.20;;;;;;5090350;28;21440;-57
2021/04/27 09:56:54;;;;;;;;;;;15.60;52.10;;;;;;5087186;28;20081;-60
2021/04/27 09:59:24;;;;;;;4.32;1.02;;;15.50;52.10;;;;;;5093581;28;21366;-55
2021/04/27 10:01:56;;;;;;;5.38;0.65;;;15.60;52.30;;;;;;5094521;28;20092;-58
2021/04/27 10:04:27;;;;;;;2.53;0.63;;;15.50;52.20;;;;;;5093743;28;20075;-60
2021/04/27 10:06:57;;;;;;;2.97;0.65;;;15.50;52.40;;;;;;5089757;28;20060;-59
2021/04/27 10:09:26;;;;;;;1.80;0.47;;;15.50;52.40;;;;;;5088595;28;20128;-57
2021/04/27 10:11:53;;;;;;;5.38;0.40;;;15.40;52.40;;;;;;5091648;28;20079;-59
2021/04/27 10:14:20;;;;;;;2.53;0.30;;;15.50;52.30;;;;;;5093888;28;20076;-56
2021/04/27 10:16:46;;;;;;;;;;;15.50;52.20;;;;;;5074348;28;20541;-59
2021/04/27 10:19:13;;;;;;;2.25;0.65;;;15.40;52.20;;;;;;5093967;28;19957;-59
2021/04/27 10:21:39;;;;;;;;;;;15.40;52.20;;;;;;5094680;28;20083;-58
2021/04/27 10:24:13;;;;;;;2.90;0.50;;;15.40;52.10;;;;;;5092492;28;20665;-56
2021/04/27 10:26:46;;;;;;;4.75;0.73;;;15.40;52.00;;;;;;5090660;28;20168;-59
2021/04/27 10:29:22;;;;;;;2.60;0.57;;;15.40;51.90;;;;;;5091033;28;20198;-59
2021/04/27 10:32:16;;;;;;;2.40;0.57;;;15.40;51.70;;;;;;5093280;28;20162;-59
2021/04/27 10:34:57;;;;;;;0.65;0.30;;;15.40;51.30;;;;;;5092497;28;20171;-59
2021/04/27 10:37:28;;;;;;;2.45;0.40;;;15.40;51.30;;;;;;5088051;28;20072;-58
2021/04/27 10:39:55;;;;;;;1.02;0.40;;;15.40;50.70;;;;;;5075371;28;20549;-60
2021/04/27 10:42:24;;;;;;;2.40;0.75;;;15.40;50.70;;;;;;5086437;28;20077;-58
2021/04/27 10:44:55;;;;;;;1.55;0.82;;;15.50;50.50;;;;;;5090739;28;20574;-60
2021/04/27 10:47:23;;;;;;;4.22;0.45;;;15.40;50.40;;;;;;5092588;28;20186;-61
2021/04/27 10:49:53;;;;;;;0.98;0.38;;;15.40;50.40;;;;;;5088478;28;20138;-60
2021/04/27 10:52:32;;;;;;;0.75;0.45;;;15.40;50.40;;;;;;5090338;28;20073;-61
2021/04/27 10:55:30;;;;;;;1.67;0.50;;;15.50;50.30;;;;;;5093613;28;20078;-58
2021/04/27 10:58:01;;;;;;;0.55;0.35;;;15.50;50.20;;;;;;5095704;28;20076;-60
2021/04/27 11:00:44;;;;;;;1.95;0.40;;;15.50;50.20;;;;;;5091334;28;20548;-55
2021/04/27 11:03:25;;;;;;;1.08;0.50;;;15.50;50.30;;;;;;5096428;28;20084;-60
2021/04/27 11:06:05;;;;;;;5.55;0.40;;;15.50;50.90;;;;;;5094294;28;20073;-58
2021/04/27 11:08:49;;;;;;;2.92;0.40;;;15.50;50.30;;;;;;5092407;28;20095;-59
2021/04/27 11:11:31;;;;;;;2.65;0.50;;;15.50;50.40;;;;;;5091061;28;20165;-57
2021/04/27 11:14:17;;;;;;;2.45;0.50;;;15.50;50.60;;;;;;5093913;28;20103;-56
2021/04/27 11:16:52;;;;;;;0.98;0.30;;;15.40;50.70;;;;;;5092197;28;20060;-58
2021/04/27 11:19:22;;;;;;;1.65;0.50;;;15.40;50.80;;;;;;5091154;28;20068;-60
2021/04/27 11:21:54;;;;;;;1.52;0.50;;;15.40;51.00;;;;;;5093224;28;20081;-60
2021/04/27 11:24:36;;;;;;;1.60;0.25;;;15.30;51.20;;;;;;5094997;28;20072;-57
2021/04/27 11:27:03;;;;;;;1.52;0.35;;;15.30;51.50;;;;;;5095730;28;20529;-57
2021/04/27 11:29:31;;;;;;;0.70;0.30;;;15.30;51.50;;;;;;5090986;28;20103;-59
2021/04/27 11:32:03;;;;;;;4.88;1.58;;;15.30;51.60;;;;;;5094108;28;20065;-55
2021/04/27 11:34:32;;;;;;;1.60;0.57;;;15.30;51.70;;;;;;5096833;28;20065;-59
2021/04/27 11:36:59;;;;;;;3.42;0.50;;;15.30;51.70;;;;;;5092939;28;20106;-59
2021/04/27 11:39:31;;;;;;;4.68;0.50;;;15.30;51.90;;;;;;5093232;28;20085;-57
2021/04/27 11:42:00;;;;;;;3.30;0.40;;;15.30;52.00;;;;;;5091903;28;20079;-59
2021/04/27 11:44:35;;;;;;;2.78;0.30;;;15.30;52.10;;;;;;5093242;28;20079;-59
2021/04/27 11:47:07;;;;;;;4.10;0.57;;;15.30;52.10;;;;;;5095626;28;20459;-54
2021/04/27 11:49:57;;;;;;;2.40;0.45;;;15.30;52.00;;;;;;5093533;28;20100;-59
2021/04/27 11:52:41;;;;;;;3.10;0.63;;;15.40;51.70;;;;;;5093845;28;20069;-58
2021/04/27 11:55:21;;;;;;;1.48;0.47;;;15.40;51.30;;;;;;5097952;28;20094;-59
2021/04/27 11:58:08;;;;;;;1.45;0.55;;;15.40;50.70;;;;;;5093881;28;20459;-60
2021/04/27 12:00:40;;;;;;;2.72;0.45;;;15.40;50.40;;;;;;5092668;28;20073;-58
2021/04/27 12:03:19;;;;;;;2.17;0.38;;;15.30;50.30;;;;;;5092935;28;20529;-59
2021/04/27 12:05:58;;;;;;;3.10;0.60;;;15.40;49.80;;;;;;5091662;28;20072;-60
2021/04/27 12:08:30;;;;;;;1.73;0.50;;;15.40;49.00;;;;;;5094713;28;20106;-58
2021/04/27 12:11:09;;;;;;;3.28;0.45;;;15.40;48.50;;;;;;5091066;28;20181;-59
2021/04/27 12:13:35;;;;;;;2.75;0.45;;;15.40;47.90;;;;;;5093886;28;20071;-59
2021/04/27 12:16:27;;;;;;;;;;;15.40;47.80;;;;;;5091319;28;20083;-60
2021/04/27 12:18:54;;;;;;;5.25;0.70;;;15.40;47.70;;;;;;5090908;28;20043;-60
2021/04/27 12:21:31;;;;;;;3.40;0.70;;;15.40;47.90;;;;;;5093811;28;20069;-59
2021/04/27 12:24:16;;;;;;;11.88;0.85;;;15.40;48.00;;;;;;5095046;28;20084;-59
2021/04/27 12:26:54;;;;;;;11.00;1.10;;;15.20;48.20;;;;;;5094994;28;20406;-60
2021/04/27 12:29:25;;;;;;;7.28;0.73;;;15.20;48.40;;;;;;5092805;28;20419;-60
2021/04/27 12:31:53;;;;;;;4.57;0.80;;;15.10;48.80;;;;;;5093346;28;20114;-59
2021/04/27 12:34:21;;;;;;;6.57;0.68;;;15.20;49.10;;;;;;5093925;28;20718;-57
2021/04/27 12:36:50;;;;;;;4.38;0.90;;;15.20;49.10;;;;;;5094280;28;20077;-57
2021/04/27 12:39:23;;;;;;;4.72;0.80;;;15.10;49.30;;;;;;5092694;28;20067;-59
2021/04/27 12:41:51;;;;;;;3.72;0.98;;;15.10;49.60;;;;;;5091150;28;20087;-59
2021/04/27 12:44:36;;;;;;;3.97;0.80;;;14.90;49.80;;;;;;5092400;28;20434;-54
2021/04/27 12:47:21;;;;;;;4.47;1.00;;;14.90;50.00;;;;;;5090438;28;20477;-59
2021/04/27 12:50:08;;;;;;;4.65;1.27;;;14.80;50.30;;;;;;5091975;28;20097;-56
2021/04/27 12:52:40;;;;;;;12.70;0.80;;;14.90;50.40;;;;;;5091297;28;20072;-57
2021/04/27 12:55:17;;;;;;;5.45;0.70;;;14.90;50.40;;;;;;5096026;28;20068;-58
2021/04/27 12:57:43;;;;;;;2.50;0.65;;;14.90;50.60;;;;;;5093832;28;20076;-57
2021/04/27 13:00:11;;;;;;;;;;;14.90;50.60;;;;;;5093700;28;20095;-59
2021/04/27 13:02:38;;;;;;;;;;;14.80;50.70;;;;;;5095085;28;20011;-59
2021/04/27 13:05:10;;;;;;;8.27;1.00;;;14.80;50.90;;;;;;5094256;28;20397;-55
2021/04/27 13:07:42;;;;;;;3.63;0.90;;;14.80;50.60;;;;;;5092034;28;20108;-59